Tpc Timaru — V7US9 — position and weather

sailwx.info

Track history (hours):
 
Tides and Currents Weather Stations Pressure Air Temp Water Temp Dewpoint Dewpoint Depression Visibility Wind Speed Wind Dir Waves Ship Positions

Tpc Timaru

Last reported at 2018-May-15 17:23 UTC. Time now 2018-Jun-19 20:03 UTC.
Position N 35°58' W 005°35'.
Warning: this ship's position is 35 days out of date.

Length 180 m; draft 6.5 m.

Type: Cargo ship. MMSI: 538004037.

Date/timePositionNaut miles runAvg speedWind from/ knotsBaromVisibWave heightAir tempDewpointWater temp
2018-May-15 17:23N 35°58' W 005°35'512.0
2018-May-15 17:00N 35°59' W 005°29'611.2
2018-May-15 16:30N 36°02' W 005°23'5 9.9
2018-May-15 15:59N 36°07' W 005°22'1 2.8
2018-May-15 15:29N 36°08' W 005°22'0 0.1
2018-May-15 14:56N 36°08' W 005°22'0 0.2
2018-May-15 14:29N 36°08' W 005°22'0 0.0
2018-May-15 13:56N 36°08' W 005°22'0 0.2
2018-May-15 13:26N 36°08' W 005°22'0 0.1
2018-May-15 12:59N 36°08' W 005°22'0 0.1
2018-May-15 12:26N 36°08' W 005°22'0 0.0
2018-May-15 11:59N 36°08' W 005°22'0 0.0
2018-May-15 09:50N 36°08' W 005°22'0 0.0
2018-May-15 09:08N 36°08' W 005°22'0 0.0
2018-May-15 08:56N 36°08' W 005°22'0 0.1
2018-May-15 08:11N 36°08' W 005°22'0 0.1
2018-May-15 07:59N 36°08' W 005°22'0 0.0
2018-May-15 07:20N 36°08' W 005°22'0 0.0
2018-May-15 06:56N 36°08' W 005°22'0 0.0
2018-May-15 06:14N 36°08' W 005°22'0 0.1
2018-May-15 05:50N 36°08' W 005°22'0 0.0
2018-May-15 05:02N 36°08' W 005°22'0 0.1
2018-May-15 04:59N 36°08' W 005°22'0 0.0
2018-May-15 04:26N 36°08' W 005°22'0 0.2
2018-May-15 03:32N 36°08' W 005°22'0 0.2
2018-May-15 03:26N 36°08' W 005°22'0 0.0
2018-May-15 01:14N 36°08' W 005°22'0 0.0
2018-May-14 21:07N 36°08' W 005°22'0 1.7
2018-May-14 20:50N 36°08' W 005°22'2 4.6
2018-May-14 20:30N 36°06' W 005°23'3 6.4
2018-May-14 20:00N 36°05' W 005°19'5 9.4
2018-May-14 19:30N 36°05' W 005°13'26213.5
2018-May-14 00:07N 36°36' E 000°09'214.4
2018-May-13 23:59N 36°36' E 000°11'814.2
2018-May-13 23:24N 36°38' E 000°22'614.2
2018-May-13 23:00N 36°39' E 000°29'713.9
2018-May-13 22:29N 36°40' E 000°37'  
Track history (hours):
 
Tides and Currents Weather Stations Pressure Air Temp Water Temp Dewpoint Dewpoint Depression Visibility Wind Speed Wind Dir Waves Ship Positions

Tpc Timaru

Last reported at 2018-May-15 17:23 UTC. Time now 2018-Jun-19 20:03 UTC.
Position N 35°58' W 005°35'.
Warning: this ship's position is 35 days out of date.

Length 180 m; draft 6.5 m.

Type: Cargo ship. MMSI: 538004037.

Date/timePositionNaut miles runAvg speedWind from/ knotsBaromVisibWave heightAir tempDewpointWater temp
2018-May-15 17:23N 35°58' W 005°35'512.0
2018-May-15 17:00N 35°59' W 005°29'611.2
2018-May-15 16:30N 36°02' W 005°23'5 9.9
2018-May-15 15:59N 36°07' W 005°22'1 2.8
2018-May-15 15:29N 36°08' W 005°22'0 0.1
2018-May-15 14:56N 36°08' W 005°22'0 0.2
2018-May-15 14:29N 36°08' W 005°22'0 0.0
2018-May-15 13:56N 36°08' W 005°22'0 0.2
2018-May-15 13:26N 36°08' W 005°22'0 0.1
2018-May-15 12:59N 36°08' W 005°22'0 0.1
2018-May-15 12:26N 36°08' W 005°22'0 0.0
2018-May-15 11:59N 36°08' W 005°22'0 0.0
2018-May-15 09:50N 36°08' W 005°22'0 0.0
2018-May-15 09:08N 36°08' W 005°22'0 0.0
2018-May-15 08:56N 36°08' W 005°22'0 0.1
2018-May-15 08:11N 36°08' W 005°22'0 0.1
2018-May-15 07:59N 36°08' W 005°22'0 0.0
2018-May-15 07:20N 36°08' W 005°22'0 0.0
2018-May-15 06:56N 36°08' W 005°22'0 0.0
2018-May-15 06:14N 36°08' W 005°22'0 0.1
2018-May-15 05:50N 36°08' W 005°22'0 0.0
2018-May-15 05:02N 36°08' W 005°22'0 0.1
2018-May-15 04:59N 36°08' W 005°22'0 0.0
2018-May-15 04:26N 36°08' W 005°22'0 0.2
2018-May-15 03:32N 36°08' W 005°22'0 0.2
2018-May-15 03:26N 36°08' W 005°22'0 0.0
2018-May-15 01:14N 36°08' W 005°22'0 0.0
2018-May-14 21:07N 36°08' W 005°22'0 1.7
2018-May-14 20:50N 36°08' W 005°22'2 4.6
2018-May-14 20:30N 36°06' W 005°23'3 6.4
2018-May-14 20:00N 36°05' W 005°19'5 9.4
2018-May-14 19:30N 36°05' W 005°13'26213.5
2018-May-14 00:07N 36°36' E 000°09'214.4
2018-May-13 23:59N 36°36' E 000°11'814.2
2018-May-13 23:24N 36°38' E 000°22'614.2
2018-May-13 23:00N 36°39' E 000°29'713.9
2018-May-13 22:29N 36°40' E 000°37'  

Dump ship's entire track history